sensor_id;sensor_type;location;lat;lon;timestamp;P1;durP1;ratioP1;P2;durP2;ratioP2
69319;SDS011;56467;53.502;49.248;2023-01-05T00:01:06;11.77;;;6.45;;
69319;SDS011;56467;53.502;49.248;2023-01-05T00:03:34;12.63;;;6.47;;
69319;SDS011;56467;53.502;49.248;2023-01-05T00:06:03;12.40;;;6.32;;
69319;SDS011;56467;53.502;49.248;2023-01-05T00:08:30;11.20;;;6.30;;
69319;SDS011;56467;53.502;49.248;2023-01-05T00:10:56;11.25;;;5.75;;
69319;SDS011;56467;53.502;49.248;2023-01-05T00:13:40;10.10;;;6.05;;
69319;SDS011;56467;53.502;49.248;2023-01-05T00:16:25;10.95;;;5.70;;
69319;SDS011;56467;53.502;49.248;2023-01-05T00:19:10;11.45;;;5.80;;
69319;SDS011;56467;53.502;49.248;2023-01-05T00:21:55;9.35;;;5.43;;
69319;SDS011;56467;53.502;49.248;2023-01-05T00:24:40;10.13;;;5.45;;
69319;SDS011;56467;53.502;49.248;2023-01-05T00:27:05;9.60;;;5.30;;
69319;SDS011;56467;53.502;49.248;2023-01-05T00:29:31;8.90;;;4.95;;
69319;SDS011;56467;53.502;49.248;2023-01-05T00:31:57;9.48;;;4.97;;
69319;SDS011;56467;53.502;49.248;2023-01-05T00:34:22;9.30;;;5.18;;
69319;SDS011;56467;53.502;49.248;2023-01-05T00:36:48;9.40;;;4.93;;
69319;SDS011;56467;53.502;49.248;2023-01-05T00:39:17;8.52;;;4.72;;
69319;SDS011;56467;53.502;49.248;2023-01-05T00:42:01;7.63;;;4.75;;
69319;SDS011;56467;53.502;49.248;2023-01-05T00:44:28;8.57;;;4.43;;
69319;SDS011;56467;53.502;49.248;2023-01-05T00:46:54;8.18;;;4.75;;
69319;SDS011;56467;53.502;49.248;2023-01-05T00:49:19;7.68;;;4.72;;
69319;SDS011;56467;53.502;49.248;2023-01-05T00:51:48;7.63;;;4.57;;
69319;SDS011;56467;53.502;49.248;2023-01-05T00:54:14;7.55;;;4.15;;
69319;SDS011;56467;53.502;49.248;2023-01-05T00:56:40;7.05;;;4.15;;
69319;SDS011;56467;53.502;49.248;2023-01-05T00:59:05;7.82;;;4.45;;
69319;SDS011;56467;53.502;49.248;2023-01-05T01:01:34;7.85;;;4.63;;
69319;SDS011;56467;53.502;49.248;2023-01-05T01:04:18;6.95;;;4.07;;
69319;SDS011;56467;53.502;49.248;2023-01-05T01:06:44;7.60;;;4.38;;
69319;SDS011;56467;53.502;49.248;2023-01-05T01:09:11;7.03;;;4.00;;
69319;SDS011;56467;53.502;49.248;2023-01-05T01:11:37;7.07;;;4.10;;
69319;SDS011;56467;53.502;49.248;2023-01-05T01:14:03;6.68;;;3.90;;
69319;SDS011;56467;53.502;49.248;2023-01-05T01:16:33;6.60;;;3.45;;
69319;SDS011;56467;53.502;49.248;2023-01-05T01:18:59;6.10;;;3.70;;
69319;SDS011;56467;53.502;49.248;2023-01-05T01:21:24;5.15;;;3.28;;
69319;SDS011;56467;53.502;49.248;2023-01-05T01:23:50;6.35;;;3.72;;
69319;SDS011;56467;53.502;49.248;2023-01-05T01:26:16;6.47;;;3.65;;
69319;SDS011;56467;53.502;49.248;2023-01-05T01:28:45;6.40;;;3.63;;
69319;SDS011;56467;53.502;49.248;2023-01-05T01:31:11;5.28;;;3.22;;
69319;SDS011;56467;53.502;49.248;2023-01-05T01:33:39;5.78;;;3.50;;
69319;SDS011;56467;53.502;49.248;2023-01-05T01:36:06;5.80;;;3.42;;
69319;SDS011;56467;53.502;49.248;2023-01-05T01:38:32;4.75;;;3.28;;
69319;SDS011;56467;53.502;49.248;2023-01-05T01:40:59;5.60;;;3.20;;
69319;SDS011;56467;53.502;49.248;2023-01-05T01:43:41;5.15;;;3.10;;
69319;SDS011;56467;53.502;49.248;2023-01-05T01:46:15;5.43;;;3.20;;
69319;SDS011;56467;53.502;49.248;2023-01-05T01:48:50;5.57;;;3.25;;
69319;SDS011;56467;53.502;49.248;2023-01-05T01:51:30;5.25;;;3.08;;
69319;SDS011;56467;53.502;49.248;2023-01-05T01:53:59;4.90;;;3.05;;
69319;SDS011;56467;53.502;49.248;2023-01-05T01:56:29;4.05;;;2.72;;
69319;SDS011;56467;53.502;49.248;2023-01-05T01:59:00;4.45;;;2.80;;
69319;SDS011;56467;53.502;49.248;2023-01-05T02:01:26;4.93;;;2.97;;
69319;SDS011;56467;53.502;49.248;2023-01-05T02:03:52;4.80;;;2.90;;
69319;SDS011;56467;53.502;49.248;2023-01-05T02:06:19;4.55;;;2.97;;
69319;SDS011;56467;53.502;49.248;2023-01-05T02:08:45;5.22;;;3.00;;
69319;SDS011;56467;53.502;49.248;2023-01-05T02:22:00;4.57;;;2.80;;
69319;SDS011;56467;53.502;49.248;2023-01-05T02:41:01;4.70;;;2.67;;
69319;SDS011;56467;53.502;49.248;2023-01-05T02:45:58;3.78;;;2.40;;
69319;SDS011;56467;53.502;49.248;2023-01-05T02:48:23;3.40;;;2.20;;
69319;SDS011;56467;53.502;49.248;2023-01-05T02:50:54;3.47;;;2.30;;
69319;SDS011;56467;53.502;49.248;2023-01-05T02:59:49;4.05;;;2.08;;
69319;SDS011;56467;53.502;49.248;2023-01-05T03:02:11;3.88;;;1.88;;
69319;SDS011;56467;53.502;49.248;2023-01-05T03:04:52;4.18;;;2.40;;
69319;SDS011;56467;53.502;49.248;2023-01-05T03:07:26;4.13;;;2.00;;
69319;SDS011;56467;53.502;49.248;2023-01-05T03:09:56;3.08;;;2.30;;
69319;SDS011;56467;53.502;49.248;2023-01-05T03:12:30;3.47;;;2.20;;
69319;SDS011;56467;53.502;49.248;2023-01-05T03:15:18;3.33;;;2.08;;
69319;SDS011;56467;53.502;49.248;2023-01-05T03:17:56;3.55;;;1.70;;
69319;SDS011;56467;53.502;49.248;2023-01-05T03:20:27;3.35;;;2.03;;
69319;SDS011;56467;53.502;49.248;2023-01-05T03:22:56;3.22;;;2.03;;
69319;SDS011;56467;53.502;49.248;2023-01-05T03:25:41;2.97;;;2.10;;
69319;SDS011;56467;53.502;49.248;2023-01-05T03:28:29;3.35;;;2.00;;
69319;SDS011;56467;53.502;49.248;2023-01-05T03:31:22;2.70;;;1.80;;
69319;SDS011;56467;53.502;49.248;2023-01-05T03:37:08;2.63;;;1.75;;
69319;SDS011;56467;53.502;49.248;2023-01-05T03:39:39;2.25;;;1.67;;
69319;SDS011;56467;53.502;49.248;2023-01-05T03:42:08;2.25;;;1.67;;
69319;SDS011;56467;53.502;49.248;2023-01-05T03:44:39;2.10;;;1.58;;
69319;SDS011;56467;53.502;49.248;2023-01-05T03:47:09;2.58;;;1.70;;
69319;SDS011;56467;53.502;49.248;2023-01-05T03:49:35;2.78;;;1.98;;
69319;SDS011;56467;53.502;49.248;2023-01-05T03:52:20;2.20;;;1.60;;
69319;SDS011;56467;53.502;49.248;2023-01-05T03:54:46;2.25;;;1.63;;
69319;SDS011;56467;53.502;49.248;2023-01-05T03:57:11;2.25;;;1.70;;
69319;SDS011;56467;53.502;49.248;2023-01-05T03:59:37;2.00;;;1.60;;
69319;SDS011;56467;53.502;49.248;2023-01-05T04:02:02;1.88;;;1.40;;
69319;SDS011;56467;53.502;49.248;2023-01-05T04:04:28;3.15;;;1.67;;
69319;SDS011;56467;53.502;49.248;2023-01-05T04:06:54;3.10;;;1.60;;
69319;SDS011;56467;53.502;49.248;2023-01-05T04:09:20;2.03;;;1.45;;
69319;SDS011;56467;53.502;49.248;2023-01-05T04:11:45;2.17;;;1.50;;
69319;SDS011;56467;53.502;49.248;2023-01-05T04:14:11;2.10;;;1.30;;
69319;SDS011;56467;53.502;49.248;2023-01-05T04:16:56;2.15;;;1.67;;
69319;SDS011;56467;53.502;49.248;2023-01-05T04:19:21;2.22;;;1.67;;
69319;SDS011;56467;53.502;49.248;2023-01-05T04:21:47;2.30;;;1.45;;
69319;SDS011;56467;53.502;49.248;2023-01-05T04:24:13;1.85;;;1.30;;
69319;SDS011;56467;53.502;49.248;2023-01-05T04:26:38;2.25;;;1.60;;
69319;SDS011;56467;53.502;49.248;2023-01-05T04:29:05;2.20;;;1.45;;
69319;SDS011;56467;53.502;49.248;2023-01-05T04:31:31;1.60;;;1.50;;
69319;SDS011;56467;53.502;49.248;2023-01-05T04:33:57;2.03;;;1.40;;
69319;SDS011;56467;53.502;49.248;2023-01-05T04:36:23;1.77;;;1.42;;
69319;SDS011;56467;53.502;49.248;2023-01-05T04:38:48;1.98;;;1.50;;
69319;SDS011;56467;53.502;49.248;2023-01-05T04:41:14;2.25;;;1.50;;
69319;SDS011;56467;53.502;49.248;2023-01-05T04:43:40;2.03;;;1.40;;
69319;SDS011;56467;53.502;49.248;2023-01-05T04:46:24;2.00;;;1.30;;
69319;SDS011;56467;53.502;49.248;2023-01-05T04:48:49;1.70;;;1.40;;
69319;SDS011;56467;53.502;49.248;2023-01-05T04:51:15;1.50;;;1.40;;
69319;SDS011;56467;53.502;49.248;2023-01-05T04:53:41;1.73;;;1.40;;
69319;SDS011;56467;53.502;49.248;2023-01-05T04:56:06;1.65;;;1.38;;
69319;SDS011;56467;53.502;49.248;2023-01-05T04:58:32;1.40;;;1.10;;
69319;SDS011;56467;53.502;49.248;2023-01-05T05:00:58;1.60;;;1.30;;
69319;SDS011;56467;53.502;49.248;2023-01-05T05:03:23;1.52;;;1.20;;
69319;SDS011;56467;53.502;49.248;2023-01-05T05:05:49;1.65;;;1.30;;
69319;SDS011;56467;53.502;49.248;2023-01-05T05:08:15;1.73;;;1.30;;
69319;SDS011;56467;53.502;49.248;2023-01-05T05:10:41;1.65;;;1.23;;
69319;SDS011;56467;53.502;49.248;2023-01-05T05:13:06;1.90;;;1.30;;
69319;SDS011;56467;53.502;49.248;2023-01-05T05:15:32;1.95;;;1.30;;
69319;SDS011;56467;53.502;49.248;2023-01-05T05:17:58;1.30;;;1.10;;
69319;SDS011;56467;53.502;49.248;2023-01-05T05:20:24;1.73;;;1.10;;
69319;SDS011;56467;53.502;49.248;2023-01-05T05:22:49;1.77;;;1.20;;
69319;SDS011;56467;53.502;49.248;2023-01-05T05:25:15;1.75;;;1.20;;
69319;SDS011;56467;53.502;49.248;2023-01-05T05:27:41;1.63;;;1.40;;
69319;SDS011;56467;53.502;49.248;2023-01-05T05:30:07;1.17;;;1.08;;
69319;SDS011;56467;53.502;49.248;2023-01-05T05:32:33;1.60;;;1.30;;
69319;SDS011;56467;53.502;49.248;2023-01-05T05:34:59;1.73;;;1.25;;
69319;SDS011;56467;53.502;49.248;2023-01-05T05:37:43;1.75;;;1.25;;
69319;SDS011;56467;53.502;49.248;2023-01-05T05:40:09;1.23;;;1.05;;
69319;SDS011;56467;53.502;49.248;2023-01-05T05:42:36;1.90;;;1.40;;
69319;SDS011;56467;53.502;49.248;2023-01-05T05:45:01;1.38;;;1.10;;
69319;SDS011;56467;53.502;49.248;2023-01-05T05:47:27;1.85;;;1.40;;
69319;SDS011;56467;53.502;49.248;2023-01-05T05:49:53;1.35;;;1.02;;
69319;SDS011;56467;53.502;49.248;2023-01-05T05:52:19;1.45;;;1.20;;
69319;SDS011;56467;53.502;49.248;2023-01-05T05:54:45;1.85;;;1.40;;
69319;SDS011;56467;53.502;49.248;2023-01-05T05:57:11;1.25;;;1.10;;
69319;SDS011;56467;53.502;49.248;2023-01-05T05:59:37;1.73;;;1.20;;
69319;SDS011;56467;53.502;49.248;2023-01-05T06:02:02;1.50;;;1.20;;
69319;SDS011;56467;53.502;49.248;2023-01-05T06:04:28;1.30;;;1.02;;
69319;SDS011;56467;53.502;49.248;2023-01-05T06:06:54;1.45;;;1.08;;
69319;SDS011;56467;53.502;49.248;2023-01-05T06:09:20;0.88;;;0.85;;
69319;SDS011;56467;53.502;49.248;2023-01-05T06:11:46;1.60;;;1.10;;
69319;SDS011;56467;53.502;49.248;2023-01-05T06:14:11;2.03;;;1.20;;
69319;SDS011;56467;53.502;49.248;2023-01-05T06:16:37;1.40;;;1.13;;
69319;SDS011;56467;53.502;49.248;2023-01-05T06:19:03;1.20;;;0.98;;
69319;SDS011;56467;53.502;49.248;2023-01-05T06:21:28;1.58;;;1.10;;
69319;SDS011;56467;53.502;49.248;2023-01-05T06:24:12;1.67;;;1.20;;
69319;SDS011;56467;53.502;49.248;2023-01-05T06:26:39;1.77;;;1.10;;
69319;SDS011;56467;53.502;49.248;2023-01-05T06:29:05;1.30;;;1.00;;
69319;SDS011;56467;53.502;49.248;2023-01-05T06:31:30;1.75;;;1.13;;
69319;SDS011;56467;53.502;49.248;2023-01-05T06:33:56;1.60;;;1.10;;
69319;SDS011;56467;53.502;49.248;2023-01-05T06:36:22;1.92;;;1.10;;
69319;SDS011;56467;53.502;49.248;2023-01-05T06:38:47;1.65;;;1.10;;
69319;SDS011;56467;53.502;49.248;2023-01-05T06:41:13;1.23;;;1.10;;
69319;SDS011;56467;53.502;49.248;2023-01-05T06:43:38;1.40;;;0.80;;
69319;SDS011;56467;53.502;49.248;2023-01-05T06:46:04;1.15;;;1.00;;
69319;SDS011;56467;53.502;49.248;2023-01-05T06:48:30;1.98;;;1.15;;
69319;SDS011;56467;53.502;49.248;2023-01-05T06:50:56;1.23;;;1.10;;
69319;SDS011;56467;53.502;49.248;2023-01-05T06:53:21;1.73;;;1.10;;
69319;SDS011;56467;53.502;49.248;2023-01-05T06:55:47;1.17;;;0.98;;
69319;SDS011;56467;53.502;49.248;2023-01-05T06:58:13;1.30;;;1.00;;
69319;SDS011;56467;53.502;49.248;2023-01-05T07:00:57;1.45;;;1.10;;
69319;SDS011;56467;53.502;49.248;2023-01-05T07:03:23;1.38;;;0.98;;
69319;SDS011;56467;53.502;49.248;2023-01-05T07:05:49;1.50;;;0.90;;
69319;SDS011;56467;53.502;49.248;2023-01-05T07:08:15;1.23;;;1.00;;
69319;SDS011;56467;53.502;49.248;2023-01-05T07:10:41;1.50;;;1.17;;
69319;SDS011;56467;53.502;49.248;2023-01-05T07:13:07;1.63;;;1.00;;
69319;SDS011;56467;53.502;49.248;2023-01-05T07:15:32;1.00;;;0.90;;
69319;SDS011;56467;53.502;49.248;2023-01-05T07:17:58;1.20;;;1.10;;
69319;SDS011;56467;53.502;49.248;2023-01-05T07:20:24;1.20;;;1.00;;
69319;SDS011;56467;53.502;49.248;2023-01-05T07:22:49;1.15;;;1.00;;
69319;SDS011;56467;53.502;49.248;2023-01-05T07:25:15;1.00;;;0.93;;
69319;SDS011;56467;53.502;49.248;2023-01-05T07:27:41;1.58;;;1.00;;
69319;SDS011;56467;53.502;49.248;2023-01-05T07:30:06;1.20;;;1.10;;
69319;SDS011;56467;53.502;49.248;2023-01-05T07:32:32;0.95;;;0.82;;
69319;SDS011;56467;53.502;49.248;2023-01-05T07:34:58;1.20;;;1.05;;
69319;SDS011;56467;53.502;49.248;2023-01-05T07:37:24;1.20;;;1.00;;
69319;SDS011;56467;53.502;49.248;2023-01-05T07:39:50;0.88;;;0.82;;
69319;SDS011;56467;53.502;49.248;2023-01-05T07:42:16;1.10;;;0.80;;
69319;SDS011;56467;53.502;49.248;2023-01-05T07:44:41;1.05;;;0.80;;
69319;SDS011;56467;53.502;49.248;2023-01-05T07:47:07;1.08;;;0.93;;
69319;SDS011;56467;53.502;49.248;2023-01-05T07:49:33;1.40;;;0.90;;
69319;SDS011;56467;53.502;49.248;2023-01-05T07:51:59;2.15;;;1.00;;
69319;SDS011;56467;53.502;49.248;2023-01-05T07:54:24;1.23;;;0.90;;
69319;SDS011;56467;53.502;49.248;2023-01-05T07:56:51;0.95;;;0.90;;
69319;SDS011;56467;53.502;49.248;2023-01-05T07:59:17;1.33;;;1.02;;
69319;SDS011;56467;53.502;49.248;2023-01-05T08:01:43;1.15;;;1.02;;
69319;SDS011;56467;53.502;49.248;2023-01-05T08:04:12;0.95;;;0.82;;
69319;SDS011;56467;53.502;49.248;2023-01-05T08:06:37;1.80;;;1.08;;
69319;SDS011;56467;53.502;49.248;2023-01-05T08:09:03;0.93;;;0.90;;
69319;SDS011;56467;53.502;49.248;2023-01-05T08:11:49;0.90;;;0.85;;
69319;SDS011;56467;53.502;49.248;2023-01-05T08:14:15;1.02;;;0.93;;
69319;SDS011;56467;53.502;49.248;2023-01-05T08:16:40;1.00;;;0.90;;
69319;SDS011;56467;53.502;49.248;2023-01-05T08:19:07;1.10;;;0.90;;
69319;SDS011;56467;53.502;49.248;2023-01-05T08:21:33;1.25;;;1.00;;
69319;SDS011;56467;53.502;49.248;2023-01-05T08:23:59;1.23;;;0.93;;
69319;SDS011;56467;53.502;49.248;2023-01-05T08:26:25;1.02;;;0.90;;
69319;SDS011;56467;53.502;49.248;2023-01-05T08:28:51;1.38;;;0.90;;
69319;SDS011;56467;53.502;49.248;2023-01-05T08:31:19;1.00;;;0.90;;
69319;SDS011;56467;53.502;49.248;2023-01-05T08:33:47;0.80;;;0.80;;
69319;SDS011;56467;53.502;49.248;2023-01-05T08:36:14;1.35;;;1.00;;
69319;SDS011;56467;53.502;49.248;2023-01-05T08:38:44;1.20;;;0.90;;
69319;SDS011;56467;53.502;49.248;2023-01-05T08:41:22;1.35;;;1.00;;
69319;SDS011;56467;53.502;49.248;2023-01-05T08:43:59;0.95;;;0.80;;
69319;SDS011;56467;53.502;49.248;2023-01-05T08:46:28;1.00;;;0.90;;
69319;SDS011;56467;53.502;49.248;2023-01-05T08:48:57;1.00;;;0.90;;
69319;SDS011;56467;53.502;49.248;2023-01-05T08:51:24;1.10;;;1.00;;
69319;SDS011;56467;53.502;49.248;2023-01-05T08:53:51;1.00;;;0.90;;
69319;SDS011;56467;53.502;49.248;2023-01-05T08:56:17;0.88;;;0.73;;
69319;SDS011;56467;53.502;49.248;2023-01-05T08:58:44;1.10;;;1.00;;
69319;SDS011;56467;53.502;49.248;2023-01-05T09:01:11;1.08;;;0.82;;
69319;SDS011;56467;53.502;49.248;2023-01-05T09:03:38;0.93;;;0.77;;
69319;SDS011;56467;53.502;49.248;2023-01-05T09:06:04;1.23;;;0.90;;
69319;SDS011;56467;53.502;49.248;2023-01-05T09:08:33;1.17;;;0.90;;
69319;SDS011;56467;53.502;49.248;2023-01-05T09:11:13;1.13;;;0.80;;
69319;SDS011;56467;53.502;49.248;2023-01-05T09:13:44;1.17;;;0.93;;
69319;SDS011;56467;53.502;49.248;2023-01-05T09:16:13;1.00;;;0.90;;
69319;SDS011;56467;53.502;49.248;2023-01-05T09:18:41;0.85;;;0.75;;
69319;SDS011;56467;53.502;49.248;2023-01-05T09:21:08;0.80;;;0.80;;
69319;SDS011;56467;53.502;49.248;2023-01-05T09:23:34;0.80;;;0.80;;
69319;SDS011;56467;53.502;49.248;2023-01-05T09:26:04;1.08;;;0.98;;
69319;SDS011;56467;53.502;49.248;2023-01-05T09:28:35;1.00;;;0.80;;
69319;SDS011;56467;53.502;49.248;2023-01-05T09:33:56;1.30;;;0.90;;
69319;SDS011;56467;53.502;49.248;2023-01-05T09:36:22;2.28;;;1.00;;
69319;SDS011;56467;53.502;49.248;2023-01-05T09:38:50;1.00;;;0.80;;
69319;SDS011;56467;53.502;49.248;2023-01-05T09:43:58;0.80;;;0.80;;
69319;SDS011;56467;53.502;49.248;2023-01-05T09:46:31;1.98;;;0.90;;
69319;SDS011;56467;53.502;49.248;2023-01-05T09:49:20;1.05;;;0.80;;
69319;SDS011;56467;53.502;49.248;2023-01-05T09:51:48;1.27;;;1.05;;
69319;SDS011;56467;53.502;49.248;2023-01-05T09:54:18;1.15;;;1.00;;
69319;SDS011;56467;53.502;49.248;2023-01-05T09:56:46;1.00;;;0.90;;
69319;SDS011;56467;53.502;49.248;2023-01-05T09:59:23;1.67;;;0.80;;
69319;SDS011;56467;53.502;49.248;2023-01-05T10:01:53;0.95;;;0.85;;
69319;SDS011;56467;53.502;49.248;2023-01-05T10:04:20;1.48;;;0.90;;
69319;SDS011;56467;53.502;49.248;2023-01-05T10:06:49;0.98;;;0.82;;
69319;SDS011;56467;53.502;49.248;2023-01-05T10:09:37;1.77;;;1.00;;
69319;SDS011;56467;53.502;49.248;2023-01-05T10:12:16;1.02;;;0.90;;
69319;SDS011;56467;53.502;49.248;2023-01-05T10:15:11;0.98;;;0.70;;
69319;SDS011;56467;53.502;49.248;2023-01-05T10:17:40;1.25;;;1.00;;
69319;SDS011;56467;53.502;49.248;2023-01-05T10:23:29;0.90;;;0.90;;
69319;SDS011;56467;53.502;49.248;2023-01-05T10:26:19;1.17;;;1.00;;
69319;SDS011;56467;53.502;49.248;2023-01-05T10:29:02;0.85;;;0.80;;
69319;SDS011;56467;53.502;49.248;2023-01-05T10:31:44;1.00;;;0.90;;
69319;SDS011;56467;53.502;49.248;2023-01-05T10:34:23;0.80;;;0.80;;
69319;SDS011;56467;53.502;49.248;2023-01-05T10:40:17;1.08;;;0.70;;
69319;SDS011;56467;53.502;49.248;2023-01-05T10:45:35;0.93;;;0.88;;
69319;SDS011;56467;53.502;49.248;2023-01-05T10:48:02;0.88;;;0.80;;
69319;SDS011;56467;53.502;49.248;2023-01-05T10:50:33;1.05;;;0.90;;
69319;SDS011;56467;53.502;49.248;2023-01-05T10:58:37;1.30;;;0.98;;
69319;SDS011;56467;53.502;49.248;2023-01-05T11:01:12;0.98;;;0.80;;
69319;SDS011;56467;53.502;49.248;2023-01-05T11:04:07;1.48;;;1.00;;
69319;SDS011;56467;53.502;49.248;2023-01-05T11:06:44;1.20;;;0.90;;
69319;SDS011;56467;53.502;49.248;2023-01-05T11:11:37;0.95;;;0.80;;
69319;SDS011;56467;53.502;49.248;2023-01-05T11:14:11;2.15;;;1.10;;
69319;SDS011;56467;53.502;49.248;2023-01-05T11:16:45;2.30;;;1.48;;
69319;SDS011;56467;53.502;49.248;2023-01-05T11:19:13;5.45;;;2.28;;
69319;SDS011;56467;53.502;49.248;2023-01-05T11:21:43;8.73;;;4.00;;
69319;SDS011;56467;53.502;49.248;2023-01-05T11:24:32;11.45;;;5.32;;
69319;SDS011;56467;53.502;49.248;2023-01-05T11:27:03;12.85;;;6.03;;
69319;SDS011;56467;53.502;49.248;2023-01-05T11:32:42;14.38;;;7.13;;
69319;SDS011;56467;53.502;49.248;2023-01-05T11:35:20;15.20;;;7.72;;
69319;SDS011;56467;53.502;49.248;2023-01-05T11:37:52;14.00;;;7.20;;
69319;SDS011;56467;53.502;49.248;2023-01-05T11:40:18;14.13;;;7.18;;
69319;SDS011;56467;53.502;49.248;2023-01-05T11:42:47;13.57;;;7.00;;
69319;SDS011;56467;53.502;49.248;2023-01-05T11:45:20;15.40;;;7.70;;
69319;SDS011;56467;53.502;49.248;2023-01-05T11:47:56;13.38;;;7.07;;
69319;SDS011;56467;53.502;49.248;2023-01-05T11:53:01;14.50;;;7.07;;
69319;SDS011;56467;53.502;49.248;2023-01-05T11:57:57;11.88;;;6.53;;
69319;SDS011;56467;53.502;49.248;2023-01-05T12:06:04;12.50;;;6.70;;
69319;SDS011;56467;53.502;49.248;2023-01-05T12:17:16;14.18;;;7.82;;
69319;SDS011;56467;53.502;49.248;2023-01-05T12:23:09;18.08;;;8.05;;
69319;SDS011;56467;53.502;49.248;2023-01-05T12:34:17;16.25;;;7.68;;
69319;SDS011;56467;53.502;49.248;2023-01-05T12:50:53;13.98;;;6.65;;
69319;SDS011;56467;53.502;49.248;2023-01-05T12:59:01;11.23;;;5.78;;
69319;SDS011;56467;53.502;49.248;2023-01-05T13:07:05;11.25;;;5.70;;
69319;SDS011;56467;53.502;49.248;2023-01-05T13:09:37;10.52;;;5.20;;
69319;SDS011;56467;53.502;49.248;2023-01-05T13:12:04;9.68;;;5.30;;
69319;SDS011;56467;53.502;49.248;2023-01-05T13:14:43;10.07;;;5.30;;
69319;SDS011;56467;53.502;49.248;2023-01-05T13:17:24;10.02;;;5.18;;
69319;SDS011;56467;53.502;49.248;2023-01-05T13:20:09;8.57;;;4.20;;
69319;SDS011;56467;53.502;49.248;2023-01-05T13:23:10;8.60;;;4.90;;
69319;SDS011;56467;53.502;49.248;2023-01-05T13:25:44;9.05;;;4.55;;
69319;SDS011;56467;53.502;49.248;2023-01-05T13:28:19;8.25;;;4.50;;
69319;SDS011;56467;53.502;49.248;2023-01-05T13:30:50;8.02;;;4.50;;
69319;SDS011;56467;53.502;49.248;2023-01-05T13:36:20;7.20;;;3.97;;
69319;SDS011;56467;53.502;49.248;2023-01-05T13:53:27;10.55;;;5.35;;
69319;SDS011;56467;53.502;49.248;2023-01-05T13:55:58;11.25;;;5.68;;
69319;SDS011;56467;53.502;49.248;2023-01-05T13:58:33;10.45;;;5.70;;
69319;SDS011;56467;53.502;49.248;2023-01-05T14:01:03;11.02;;;5.78;;
69319;SDS011;56467;53.502;49.248;2023-01-05T14:03:51;14.38;;;6.10;;
69319;SDS011;56467;53.502;49.248;2023-01-05T14:09:03;10.20;;;5.28;;
69319;SDS011;56467;53.502;49.248;2023-01-05T14:11:32;11.20;;;5.00;;
69319;SDS011;56467;53.502;49.248;2023-01-05T14:16:53;9.55;;;5.20;;
69319;SDS011;56467;53.502;49.248;2023-01-05T14:22:02;7.97;;;4.53;;
69319;SDS011;56467;53.502;49.248;2023-01-05T14:24:39;8.40;;;4.63;;
69319;SDS011;56467;53.502;49.248;2023-01-05T14:29:57;9.10;;;4.70;;
69319;SDS011;56467;53.502;49.248;2023-01-05T14:32:29;7.18;;;4.05;;
69319;SDS011;56467;53.502;49.248;2023-01-05T14:37:55;6.65;;;3.90;;
69319;SDS011;56467;53.502;49.248;2023-01-05T14:40:28;6.65;;;3.67;;
69319;SDS011;56467;53.502;49.248;2023-01-05T14:42:56;6.30;;;3.65;;
69319;SDS011;56467;53.502;49.248;2023-01-05T14:45:28;7.97;;;4.10;;
69319;SDS011;56467;53.502;49.248;2023-01-05T14:47:56;6.75;;;3.70;;
69319;SDS011;56467;53.502;49.248;2023-01-05T14:53:03;7.82;;;3.60;;
69319;SDS011;56467;53.502;49.248;2023-01-05T14:55:34;5.72;;;3.38;;
69319;SDS011;56467;53.502;49.248;2023-01-05T14:58:02;6.50;;;3.40;;
69319;SDS011;56467;53.502;49.248;2023-01-05T15:00:41;5.97;;;3.10;;
69319;SDS011;56467;53.502;49.248;2023-01-05T15:03:40;6.03;;;3.45;;
69319;SDS011;56467;53.502;49.248;2023-01-05T15:06:29;5.53;;;3.20;;
69319;SDS011;56467;53.502;49.248;2023-01-05T15:09:42;6.07;;;3.17;;
69319;SDS011;56467;53.502;49.248;2023-01-05T15:12:22;4.47;;;2.83;;
69319;SDS011;56467;53.502;49.248;2023-01-05T15:18:26;5.18;;;2.78;;
69319;SDS011;56467;53.502;49.248;2023-01-05T15:20:59;4.78;;;2.63;;
69319;SDS011;56467;53.502;49.248;2023-01-05T15:32:23;4.65;;;2.90;;
69319;SDS011;56467;53.502;49.248;2023-01-05T15:37:24;3.30;;;2.40;;
69319;SDS011;56467;53.502;49.248;2023-01-05T15:40:00;4.40;;;2.78;;
69319;SDS011;56467;53.502;49.248;2023-01-05T15:42:41;4.38;;;2.60;;
69319;SDS011;56467;53.502;49.248;2023-01-05T15:45:15;4.35;;;2.50;;
69319;SDS011;56467;53.502;49.248;2023-01-05T15:47:47;4.57;;;2.58;;
69319;SDS011;56467;53.502;49.248;2023-01-05T15:50:21;3.38;;;2.30;;
69319;SDS011;56467;53.502;49.248;2023-01-05T15:52:56;4.15;;;2.60;;
69319;SDS011;56467;53.502;49.248;2023-01-05T15:55:24;3.75;;;2.70;;
69319;SDS011;56467;53.502;49.248;2023-01-05T16:00:25;5.70;;;3.35;;
69319;SDS011;56467;53.502;49.248;2023-01-05T16:02:58;7.22;;;3.95;;
69319;SDS011;56467;53.502;49.248;2023-01-05T16:05:43;9.35;;;4.70;;
69319;SDS011;56467;53.502;49.248;2023-01-05T16:08:15;7.57;;;4.43;;
69319;SDS011;56467;53.502;49.248;2023-01-05T16:10:47;8.93;;;4.63;;
69319;SDS011;56467;53.502;49.248;2023-01-05T16:15:47;7.68;;;4.68;;
69319;SDS011;56467;53.502;49.248;2023-01-05T16:20:47;8.32;;;4.32;;
69319;SDS011;56467;53.502;49.248;2023-01-05T16:23:21;7.60;;;4.35;;
69319;SDS011;56467;53.502;49.248;2023-01-05T16:25:53;8.15;;;4.55;;
69319;SDS011;56467;53.502;49.248;2023-01-05T16:28:21;8.15;;;4.50;;
69319;SDS011;56467;53.502;49.248;2023-01-05T16:30:49;8.95;;;4.20;;
69319;SDS011;56467;53.502;49.248;2023-01-05T16:33:21;7.28;;;4.25;;
69319;SDS011;56467;53.502;49.248;2023-01-05T16:35:48;5.82;;;3.70;;
69319;SDS011;56467;53.502;49.248;2023-01-05T16:38:16;7.95;;;3.85;;
69319;SDS011;56467;53.502;49.248;2023-01-05T16:41:25;7.05;;;4.00;;
69319;SDS011;56467;53.502;49.248;2023-01-05T16:43:45;6.63;;;3.70;;
69319;SDS011;56467;53.502;49.248;2023-01-05T16:53:59;6.38;;;3.60;;
69319;SDS011;56467;53.502;49.248;2023-01-05T16:56:53;6.15;;;3.28;;
69319;SDS011;56467;53.502;49.248;2023-01-05T16:59:33;4.85;;;3.28;;
69319;SDS011;56467;53.502;49.248;2023-01-05T17:02:30;6.57;;;3.40;;
69319;SDS011;56467;53.502;49.248;2023-01-05T17:05:08;6.25;;;3.00;;
69319;SDS011;56467;53.502;49.248;2023-01-05T17:07:36;5.70;;;3.10;;
69319;SDS011;56467;53.502;49.248;2023-01-05T17:10:03;6.13;;;3.40;;
69319;SDS011;56467;53.502;49.248;2023-01-05T17:12:38;5.00;;;3.13;;
69319;SDS011;56467;53.502;49.248;2023-01-05T17:15:04;5.53;;;3.13;;
69319;SDS011;56467;53.502;49.248;2023-01-05T17:17:30;4.40;;;3.15;;
69319;SDS011;56467;53.502;49.248;2023-01-05T17:19:56;5.03;;;3.20;;
69319;SDS011;56467;53.502;49.248;2023-01-05T17:22:22;3.78;;;2.88;;
69319;SDS011;56467;53.502;49.248;2023-01-05T17:24:48;5.63;;;2.92;;
69319;SDS011;56467;53.502;49.248;2023-01-05T17:27:14;4.10;;;2.63;;
69319;SDS011;56467;53.502;49.248;2023-01-05T17:29:40;4.07;;;2.70;;
69319;SDS011;56467;53.502;49.248;2023-01-05T17:32:05;5.32;;;2.50;;
69319;SDS011;56467;53.502;49.248;2023-01-05T17:34:31;7.88;;;2.70;;
69319;SDS011;56467;53.502;49.248;2023-01-05T17:36:57;3.53;;;2.50;;
69319;SDS011;56467;53.502;49.248;2023-01-05T17:39:44;4.25;;;2.50;;
69319;SDS011;56467;53.502;49.248;2023-01-05T17:42:09;3.30;;;2.40;;
69319;SDS011;56467;53.502;49.248;2023-01-05T17:44:54;2.60;;;2.20;;
69319;SDS011;56467;53.502;49.248;2023-01-05T17:47:19;3.83;;;2.50;;
69319;SDS011;56467;53.502;49.248;2023-01-05T17:49:45;3.95;;;2.65;;
69319;SDS011;56467;53.502;49.248;2023-01-05T17:52:11;3.67;;;2.45;;
69319;SDS011;56467;53.502;49.248;2023-01-05T17:54:37;4.97;;;2.72;;
69319;SDS011;56467;53.502;49.248;2023-01-05T17:57:05;3.55;;;2.33;;
69319;SDS011;56467;53.502;49.248;2023-01-05T17:59:31;3.08;;;2.25;;